sensor_id;sensor_type;location;lat;lon;timestamp;P1;durP1;ratioP1;P2;durP2;ratioP2
55053;SDS011;40954;45.668;18.980;2023-04-15T00:01:11;10.48;;;6.45;;
55053;SDS011;40954;45.668;18.980;2023-04-15T00:03:42;33.30;;;16.92;;
55053;SDS011;40954;45.668;18.980;2023-04-15T00:06:09;34.53;;;17.88;;
55053;SDS011;40954;45.668;18.980;2023-04-15T00:08:35;38.95;;;20.13;;
55053;SDS011;40954;45.668;18.980;2023-04-15T00:11:01;30.48;;;15.90;;
55053;SDS011;40954;45.668;18.980;2023-04-15T00:13:29;25.98;;;15.88;;
55053;SDS011;40954;45.668;18.980;2023-04-15T00:15:56;20.20;;;12.95;;
55053;SDS011;40954;45.668;18.980;2023-04-15T00:18:23;26.30;;;14.38;;
55053;SDS011;40954;45.668;18.980;2023-04-15T00:20:49;7.63;;;5.75;;
55053;SDS011;40954;45.668;18.980;2023-04-15T00:23:16;10.32;;;6.18;;
55053;SDS011;40954;45.668;18.980;2023-04-15T00:25:42;8.98;;;7.60;;
55053;SDS011;40954;45.668;18.980;2023-04-15T00:28:08;7.80;;;6.85;;
55053;SDS011;40954;45.668;18.980;2023-04-15T00:30:34;9.77;;;7.28;;
55053;SDS011;40954;45.668;18.980;2023-04-15T00:33:01;9.30;;;7.82;;
55053;SDS011;40954;45.668;18.980;2023-04-15T00:35:27;8.35;;;7.35;;
55053;SDS011;40954;45.668;18.980;2023-04-15T00:37:56;10.85;;;8.32;;
55053;SDS011;40954;45.668;18.980;2023-04-15T00:40:22;10.48;;;8.55;;
55053;SDS011;40954;45.668;18.980;2023-04-15T00:42:49;12.88;;;9.95;;
55053;SDS011;40954;45.668;18.980;2023-04-15T00:45:15;14.93;;;10.02;;
55053;SDS011;40954;45.668;18.980;2023-04-15T00:47:41;9.75;;;8.32;;
55053;SDS011;40954;45.668;18.980;2023-04-15T00:50:08;9.45;;;7.72;;
55053;SDS011;40954;45.668;18.980;2023-04-15T00:52:34;11.95;;;8.07;;
55053;SDS011;40954;45.668;18.980;2023-04-15T00:55:00;11.38;;;8.32;;
55053;SDS011;40954;45.668;18.980;2023-04-15T00:57:27;10.68;;;7.70;;
55053;SDS011;40954;45.668;18.980;2023-04-15T00:59:54;12.88;;;8.27;;
55053;SDS011;40954;45.668;18.980;2023-04-15T01:02:20;17.30;;;10.15;;
55053;SDS011;40954;45.668;18.980;2023-04-15T01:04:47;18.08;;;10.45;;
55053;SDS011;40954;45.668;18.980;2023-04-15T01:07:13;18.65;;;11.13;;
55053;SDS011;40954;45.668;18.980;2023-04-15T01:09:40;18.17;;;10.93;;
55053;SDS011;40954;45.668;18.980;2023-04-15T01:12:06;17.95;;;10.63;;
55053;SDS011;40954;45.668;18.980;2023-04-15T01:14:32;14.88;;;9.90;;
55053;SDS011;40954;45.668;18.980;2023-04-15T01:16:58;14.13;;;9.90;;
55053;SDS011;40954;45.668;18.980;2023-04-15T01:19:24;22.05;;;10.90;;
55053;SDS011;40954;45.668;18.980;2023-04-15T01:21:51;11.55;;;8.55;;
55053;SDS011;40954;45.668;18.980;2023-04-15T01:24:17;11.55;;;8.23;;
55053;SDS011;40954;45.668;18.980;2023-04-15T01:26:44;14.32;;;10.52;;
55053;SDS011;40954;45.668;18.980;2023-04-15T01:29:12;12.77;;;9.07;;
55053;SDS011;40954;45.668;18.980;2023-04-15T01:31:38;16.67;;;11.32;;
55053;SDS011;40954;45.668;18.980;2023-04-15T01:34:04;14.30;;;10.38;;
55053;SDS011;40954;45.668;18.980;2023-04-15T01:36:30;17.73;;;10.77;;
55053;SDS011;40954;45.668;18.980;2023-04-15T01:38:56;13.35;;;10.15;;
55053;SDS011;40954;45.668;18.980;2023-04-15T01:41:26;15.77;;;10.10;;
55053;SDS011;40954;45.668;18.980;2023-04-15T01:43:53;16.17;;;11.05;;
55053;SDS011;40954;45.668;18.980;2023-04-15T01:46:19;21.73;;;12.02;;
55053;SDS011;40954;45.668;18.980;2023-04-15T01:48:45;12.75;;;9.18;;
55053;SDS011;40954;45.668;18.980;2023-04-15T01:51:11;9.18;;;6.22;;
55053;SDS011;40954;45.668;18.980;2023-04-15T01:53:37;7.90;;;6.10;;
55053;SDS011;40954;45.668;18.980;2023-04-15T01:56:04;8.93;;;6.78;;
55053;SDS011;40954;45.668;18.980;2023-04-15T01:58:31;8.02;;;6.63;;
55053;SDS011;40954;45.668;18.980;2023-04-15T02:00:57;8.32;;;7.20;;
55053;SDS011;40954;45.668;18.980;2023-04-15T02:03:27;8.93;;;7.40;;
55053;SDS011;40954;45.668;18.980;2023-04-15T02:05:53;9.32;;;7.03;;
55053;SDS011;40954;45.668;18.980;2023-04-15T02:08:19;8.27;;;6.85;;
55053;SDS011;40954;45.668;18.980;2023-04-15T02:10:46;8.77;;;7.05;;
55053;SDS011;40954;45.668;18.980;2023-04-15T02:13:12;7.30;;;6.55;;
55053;SDS011;40954;45.668;18.980;2023-04-15T02:15:38;8.95;;;6.43;;
55053;SDS011;40954;45.668;18.980;2023-04-15T02:18:05;7.80;;;6.75;;
55053;SDS011;40954;45.668;18.980;2023-04-15T02:20:31;6.78;;;5.97;;
55053;SDS011;40954;45.668;18.980;2023-04-15T02:22:58;6.82;;;6.15;;
55053;SDS011;40954;45.668;18.980;2023-04-15T02:25:24;9.07;;;6.72;;
55053;SDS011;40954;45.668;18.980;2023-04-15T02:27:50;7.22;;;6.15;;
55053;SDS011;40954;45.668;18.980;2023-04-15T02:30:17;8.02;;;6.32;;
55053;SDS011;40954;45.668;18.980;2023-04-15T02:32:43;6.70;;;6.05;;
55053;SDS011;40954;45.668;18.980;2023-04-15T02:35:09;10.48;;;6.60;;
55053;SDS011;40954;45.668;18.980;2023-04-15T02:37:36;8.90;;;7.35;;
55053;SDS011;40954;45.668;18.980;2023-04-15T02:40:07;12.40;;;7.28;;
55053;SDS011;40954;45.668;18.980;2023-04-15T02:42:40;9.68;;;7.38;;
55053;SDS011;40954;45.668;18.980;2023-04-15T02:45:07;11.02;;;7.18;;
55053;SDS011;40954;45.668;18.980;2023-04-15T02:47:33;8.48;;;7.57;;
55053;SDS011;40954;45.668;18.980;2023-04-15T02:50:01;10.60;;;8.00;;
55053;SDS011;40954;45.668;18.980;2023-04-15T02:52:27;9.90;;;7.43;;
55053;SDS011;40954;45.668;18.980;2023-04-15T02:54:53;11.50;;;7.38;;
55053;SDS011;40954;45.668;18.980;2023-04-15T02:57:24;9.93;;;7.95;;
55053;SDS011;40954;45.668;18.980;2023-04-15T02:59:50;8.27;;;7.13;;
55053;SDS011;40954;45.668;18.980;2023-04-15T03:02:16;9.55;;;7.60;;
55053;SDS011;40954;45.668;18.980;2023-04-15T03:04:42;9.43;;;7.28;;
55053;SDS011;40954;45.668;18.980;2023-04-15T03:07:08;9.65;;;6.40;;
55053;SDS011;40954;45.668;18.980;2023-04-15T03:09:34;6.68;;;5.97;;
55053;SDS011;40954;45.668;18.980;2023-04-15T03:12:01;6.55;;;5.85;;
55053;SDS011;40954;45.668;18.980;2023-04-15T03:14:27;7.15;;;5.20;;
55053;SDS011;40954;45.668;18.980;2023-04-15T03:16:53;7.53;;;5.75;;
55053;SDS011;40954;45.668;18.980;2023-04-15T03:19:20;6.75;;;5.40;;
55053;SDS011;40954;45.668;18.980;2023-04-15T03:21:46;6.32;;;5.63;;
55053;SDS011;40954;45.668;18.980;2023-04-15T03:24:12;5.97;;;5.38;;
55053;SDS011;40954;45.668;18.980;2023-04-15T03:26:38;5.68;;;5.18;;
55053;SDS011;40954;45.668;18.980;2023-04-15T03:29:04;8.20;;;6.75;;
55053;SDS011;40954;45.668;18.980;2023-04-15T03:31:30;7.82;;;7.03;;
55053;SDS011;40954;45.668;18.980;2023-04-15T03:33:56;7.43;;;6.65;;
55053;SDS011;40954;45.668;18.980;2023-04-15T03:36:22;8.15;;;6.70;;
55053;SDS011;40954;45.668;18.980;2023-04-15T03:38:48;8.73;;;6.38;;
55053;SDS011;40954;45.668;18.980;2023-04-15T03:41:14;11.75;;;6.20;;
55053;SDS011;40954;45.668;18.980;2023-04-15T03:43:40;7.40;;;6.60;;
55053;SDS011;40954;45.668;18.980;2023-04-15T03:46:06;8.40;;;6.53;;
55053;SDS011;40954;45.668;18.980;2023-04-15T03:48:32;7.18;;;6.47;;
55053;SDS011;40954;45.668;18.980;2023-04-15T03:50:58;8.02;;;6.63;;
55053;SDS011;40954;45.668;18.980;2023-04-15T03:53:24;6.70;;;5.90;;
55053;SDS011;40954;45.668;18.980;2023-04-15T03:55:50;7.70;;;6.68;;
55053;SDS011;40954;45.668;18.980;2023-04-15T03:58:16;8.20;;;6.38;;
55053;SDS011;40954;45.668;18.980;2023-04-15T04:00:43;6.90;;;6.22;;
55053;SDS011;40954;45.668;18.980;2023-04-15T04:03:09;7.25;;;6.55;;
55053;SDS011;40954;45.668;18.980;2023-04-15T04:05:35;8.15;;;6.90;;
55053;SDS011;40954;45.668;18.980;2023-04-15T04:08:03;8.10;;;6.38;;
55053;SDS011;40954;45.668;18.980;2023-04-15T04:10:30;8.25;;;7.45;;
55053;SDS011;40954;45.668;18.980;2023-04-15T04:12:56;9.80;;;8.50;;
55053;SDS011;40954;45.668;18.980;2023-04-15T04:15:22;9.93;;;8.15;;
55053;SDS011;40954;45.668;18.980;2023-04-15T04:17:48;12.43;;;9.20;;
55053;SDS011;40954;45.668;18.980;2023-04-15T04:20:14;11.27;;;8.98;;
55053;SDS011;40954;45.668;18.980;2023-04-15T04:22:40;10.63;;;8.52;;
55053;SDS011;40954;45.668;18.980;2023-04-15T04:25:07;13.45;;;8.63;;
55053;SDS011;40954;45.668;18.980;2023-04-15T04:27:34;9.77;;;8.65;;
55053;SDS011;40954;45.668;18.980;2023-04-15T04:30:00;12.60;;;8.88;;
55053;SDS011;40954;45.668;18.980;2023-04-15T04:32:26;15.88;;;11.80;;
55053;SDS011;40954;45.668;18.980;2023-04-15T04:34:52;12.38;;;9.80;;
55053;SDS011;40954;45.668;18.980;2023-04-15T04:37:18;12.07;;;10.07;;
55053;SDS011;40954;45.668;18.980;2023-04-15T04:39:44;11.75;;;9.15;;
55053;SDS011;40954;45.668;18.980;2023-04-15T04:42:10;11.57;;;9.13;;
55053;SDS011;40954;45.668;18.980;2023-04-15T04:44:36;11.23;;;10.02;;
55053;SDS011;40954;45.668;18.980;2023-04-15T04:47:03;11.60;;;10.40;;
55053;SDS011;40954;45.668;18.980;2023-04-15T04:49:30;15.35;;;11.85;;
55053;SDS011;40954;45.668;18.980;2023-04-15T04:51:56;13.45;;;10.45;;
55053;SDS011;40954;45.668;18.980;2023-04-15T04:54:22;13.00;;;11.15;;
55053;SDS011;40954;45.668;18.980;2023-04-15T04:56:48;19.33;;;13.63;;
55053;SDS011;40954;45.668;18.980;2023-04-15T04:59:14;19.77;;;13.05;;
55053;SDS011;40954;45.668;18.980;2023-04-15T05:01:41;21.73;;;15.82;;
55053;SDS011;40954;45.668;18.980;2023-04-15T05:04:07;18.83;;;14.88;;
55053;SDS011;40954;45.668;18.980;2023-04-15T05:06:33;16.98;;;14.18;;
55053;SDS011;40954;45.668;18.980;2023-04-15T05:09:00;21.17;;;13.57;;
55053;SDS011;40954;45.668;18.980;2023-04-15T05:11:27;18.05;;;13.70;;
55053;SDS011;40954;45.668;18.980;2023-04-15T05:13:53;18.08;;;13.98;;
55053;SDS011;40954;45.668;18.980;2023-04-15T05:16:19;20.77;;;14.18;;
55053;SDS011;40954;45.668;18.980;2023-04-15T05:18:46;18.45;;;15.23;;
55053;SDS011;40954;45.668;18.980;2023-04-15T05:21:12;20.55;;;15.57;;
55053;SDS011;40954;45.668;18.980;2023-04-15T05:23:38;22.60;;;17.35;;
55053;SDS011;40954;45.668;18.980;2023-04-15T05:26:05;19.23;;;15.73;;
55053;SDS011;40954;45.668;18.980;2023-04-15T05:28:31;18.33;;;14.32;;
55053;SDS011;40954;45.668;18.980;2023-04-15T05:30:58;18.10;;;14.57;;
55053;SDS011;40954;45.668;18.980;2023-04-15T05:33:24;15.52;;;13.27;;
55053;SDS011;40954;45.668;18.980;2023-04-15T05:35:51;15.77;;;12.35;;
55053;SDS011;40954;45.668;18.980;2023-04-15T05:38:17;14.25;;;12.40;;
55053;SDS011;40954;45.668;18.980;2023-04-15T05:40:43;15.20;;;11.88;;
55053;SDS011;40954;45.668;18.980;2023-04-15T05:43:09;15.85;;;11.75;;
55053;SDS011;40954;45.668;18.980;2023-04-15T05:45:35;15.82;;;12.70;;
55053;SDS011;40954;45.668;18.980;2023-04-15T05:48:01;13.35;;;10.05;;
55053;SDS011;40954;45.668;18.980;2023-04-15T05:50:28;12.23;;;10.02;;
55053;SDS011;40954;45.668;18.980;2023-04-15T05:52:54;11.02;;;9.63;;
55053;SDS011;40954;45.668;18.980;2023-04-15T05:55:20;13.20;;;10.98;;
55053;SDS011;40954;45.668;18.980;2023-04-15T05:57:46;12.20;;;10.07;;
55053;SDS011;40954;45.668;18.980;2023-04-15T06:00:12;12.43;;;9.10;;
55053;SDS011;40954;45.668;18.980;2023-04-15T06:02:39;11.57;;;9.35;;
55053;SDS011;40954;45.668;18.980;2023-04-15T06:05:05;9.77;;;8.13;;
55053;SDS011;40954;45.668;18.980;2023-04-15T06:07:34;9.38;;;7.30;;
55053;SDS011;40954;45.668;18.980;2023-04-15T06:10:01;11.98;;;7.00;;
55053;SDS011;40954;45.668;18.980;2023-04-15T06:12:27;11.18;;;6.93;;
55053;SDS011;40954;45.668;18.980;2023-04-15T06:14:53;8.77;;;7.25;;
55053;SDS011;40954;45.668;18.980;2023-04-15T06:17:19;11.13;;;8.13;;
55053;SDS011;40954;45.668;18.980;2023-04-15T06:19:46;13.52;;;9.13;;
55053;SDS011;40954;45.668;18.980;2023-04-15T06:22:12;24.67;;;18.58;;
55053;SDS011;40954;45.668;18.980;2023-04-15T06:24:38;13.38;;;11.18;;
55053;SDS011;40954;45.668;18.980;2023-04-15T06:27:05;17.42;;;12.43;;
55053;SDS011;40954;45.668;18.980;2023-04-15T06:29:31;24.90;;;16.90;;
55053;SDS011;40954;45.668;18.980;2023-04-15T06:31:57;16.88;;;10.48;;
55053;SDS011;40954;45.668;18.980;2023-04-15T06:34:23;13.38;;;10.20;;
55053;SDS011;40954;45.668;18.980;2023-04-15T06:36:49;21.27;;;16.67;;
55053;SDS011;40954;45.668;18.980;2023-04-15T06:39:15;13.05;;;9.82;;
55053;SDS011;40954;45.668;18.980;2023-04-15T06:41:41;12.85;;;10.65;;
55053;SDS011;40954;45.668;18.980;2023-04-15T06:44:07;10.85;;;9.30;;
55053;SDS011;40954;45.668;18.980;2023-04-15T06:46:33;14.02;;;12.52;;
55053;SDS011;40954;45.668;18.980;2023-04-15T06:49:00;7.25;;;5.57;;
55053;SDS011;40954;45.668;18.980;2023-04-15T06:51:27;5.95;;;4.88;;
55053;SDS011;40954;45.668;18.980;2023-04-15T06:53:53;4.88;;;4.07;;
55053;SDS011;40954;45.668;18.980;2023-04-15T06:56:19;5.47;;;4.50;;
55053;SDS011;40954;45.668;18.980;2023-04-15T06:58:45;8.55;;;5.60;;
55053;SDS011;40954;45.668;18.980;2023-04-15T07:01:11;5.57;;;4.60;;
55053;SDS011;40954;45.668;18.980;2023-04-15T07:03:38;5.32;;;4.80;;
55053;SDS011;40954;45.668;18.980;2023-04-15T07:06:04;8.73;;;5.50;;
55053;SDS011;40954;45.668;18.980;2023-04-15T07:08:31;8.50;;;5.82;;
55053;SDS011;40954;45.668;18.980;2023-04-15T07:10:58;9.93;;;6.45;;
55053;SDS011;40954;45.668;18.980;2023-04-15T07:13:24;8.88;;;6.13;;
55053;SDS011;40954;45.668;18.980;2023-04-15T07:15:51;5.88;;;4.70;;
55053;SDS011;40954;45.668;18.980;2023-04-15T07:18:17;6.72;;;5.03;;
55053;SDS011;40954;45.668;18.980;2023-04-15T07:20:43;5.80;;;4.20;;
55053;SDS011;40954;45.668;18.980;2023-04-15T07:23:09;6.60;;;4.57;;
55053;SDS011;40954;45.668;18.980;2023-04-15T07:25:35;6.20;;;5.32;;
55053;SDS011;40954;45.668;18.980;2023-04-15T07:28:01;4.93;;;4.45;;
55053;SDS011;40954;45.668;18.980;2023-04-15T07:30:27;11.13;;;9.43;;
55053;SDS011;40954;45.668;18.980;2023-04-15T07:32:53;24.17;;;15.50;;
55053;SDS011;40954;45.668;18.980;2023-04-15T07:35:20;11.98;;;9.10;;
55053;SDS011;40954;45.668;18.980;2023-04-15T07:37:46;5.65;;;4.88;;
55053;SDS011;40954;45.668;18.980;2023-04-15T07:40:12;6.60;;;5.47;;
55053;SDS011;40954;45.668;18.980;2023-04-15T07:42:40;6.15;;;5.22;;
55053;SDS011;40954;45.668;18.980;2023-04-15T07:45:06;9.38;;;6.95;;
55053;SDS011;40954;45.668;18.980;2023-04-15T07:47:33;6.18;;;5.47;;
55053;SDS011;40954;45.668;18.980;2023-04-15T07:49:59;11.50;;;7.43;;
55053;SDS011;40954;45.668;18.980;2023-04-15T07:52:26;6.97;;;4.47;;
55053;SDS011;40954;45.668;18.980;2023-04-15T07:54:52;3.58;;;3.17;;
55053;SDS011;40954;45.668;18.980;2023-04-15T07:57:18;5.13;;;3.47;;
55053;SDS011;40954;45.668;18.980;2023-04-15T07:59:44;6.38;;;4.30;;
55053;SDS011;40954;45.668;18.980;2023-04-15T08:02:10;6.10;;;4.57;;
55053;SDS011;40954;45.668;18.980;2023-04-15T08:04:36;4.80;;;3.53;;
55053;SDS011;40954;45.668;18.980;2023-04-15T08:07:03;4.40;;;2.95;;
55053;SDS011;40954;45.668;18.980;2023-04-15T08:09:30;8.60;;;5.32;;
55053;SDS011;40954;45.668;18.980;2023-04-15T08:11:56;11.82;;;8.27;;
55053;SDS011;40954;45.668;18.980;2023-04-15T08:14:23;13.55;;;8.00;;
55053;SDS011;40954;45.668;18.980;2023-04-15T08:16:49;16.02;;;9.48;;
55053;SDS011;40954;45.668;18.980;2023-04-15T08:19:15;16.92;;;11.65;;
55053;SDS011;40954;45.668;18.980;2023-04-15T08:21:41;3.33;;;3.03;;
55053;SDS011;40954;45.668;18.980;2023-04-15T08:24:07;5.88;;;3.92;;
55053;SDS011;40954;45.668;18.980;2023-04-15T08:26:33;4.80;;;3.58;;
55053;SDS011;40954;45.668;18.980;2023-04-15T08:29:00;3.60;;;3.10;;
55053;SDS011;40954;45.668;18.980;2023-04-15T08:31:26;3.28;;;2.92;;
55053;SDS011;40954;45.668;18.980;2023-04-15T08:33:55;2.97;;;2.40;;
55053;SDS011;40954;45.668;18.980;2023-04-15T08:36:21;3.00;;;2.63;;
55053;SDS011;40954;45.668;18.980;2023-04-15T08:38:47;4.75;;;4.22;;
55053;SDS011;40954;45.668;18.980;2023-04-15T08:41:23;4.72;;;4.32;;
55053;SDS011;40954;45.668;18.980;2023-04-15T08:43:56;4.15;;;3.58;;
55053;SDS011;40954;45.668;18.980;2023-04-15T08:48:48;11.07;;;7.80;;
55053;SDS011;40954;45.668;18.980;2023-04-15T08:51:15;4.63;;;3.80;;
55053;SDS011;40954;45.668;18.980;2023-04-15T08:53:43;3.72;;;2.85;;
55053;SDS011;40954;45.668;18.980;2023-04-15T08:56:11;3.35;;;2.00;;
55053;SDS011;40954;45.668;18.980;2023-04-15T08:58:37;3.03;;;2.40;;
55053;SDS011;40954;45.668;18.980;2023-04-15T09:01:03;4.95;;;2.65;;
55053;SDS011;40954;45.668;18.980;2023-04-15T09:03:30;3.03;;;2.72;;
55053;SDS011;40954;45.668;18.980;2023-04-15T09:05:56;3.67;;;2.60;;
55053;SDS011;40954;45.668;18.980;2023-04-15T09:08:22;5.30;;;3.65;;
55053;SDS011;40954;45.668;18.980;2023-04-15T09:10:48;2.25;;;2.00;;
55053;SDS011;40954;45.668;18.980;2023-04-15T09:13:15;1.60;;;1.50;;
55053;SDS011;40954;45.668;18.980;2023-04-15T09:15:41;3.17;;;2.65;;
55053;SDS011;40954;45.668;18.980;2023-04-15T09:18:08;2.75;;;2.50;;
55053;SDS011;40954;45.668;18.980;2023-04-15T09:20:38;2.20;;;2.00;;
55053;SDS011;40954;45.668;18.980;2023-04-15T09:23:10;2.90;;;2.50;;
55053;SDS011;40954;45.668;18.980;2023-04-15T09:25:38;2.13;;;2.03;;
55053;SDS011;40954;45.668;18.980;2023-04-15T09:28:06;4.05;;;1.98;;
55053;SDS011;40954;45.668;18.980;2023-04-15T09:30:32;2.20;;;2.00;;
55053;SDS011;40954;45.668;18.980;2023-04-15T09:33:00;12.57;;;6.80;;
55053;SDS011;40954;45.668;18.980;2023-04-15T09:35:26;2.03;;;1.83;;
55053;SDS011;40954;45.668;18.980;2023-04-15T09:37:53;2.60;;;2.40;;
55053;SDS011;40954;45.668;18.980;2023-04-15T09:40:39;3.97;;;2.40;;
55053;SDS011;40954;45.668;18.980;2023-04-15T09:43:06;2.55;;;2.15;;
55053;SDS011;40954;45.668;18.980;2023-04-15T09:45:33;1.45;;;1.35;;
55053;SDS011;40954;45.668;18.980;2023-04-15T09:50:41;1.52;;;1.42;;
55053;SDS011;40954;45.668;18.980;2023-04-15T09:53:08;1.70;;;1.20;;
55053;SDS011;40954;45.668;18.980;2023-04-15T09:55:35;1.23;;;0.82;;
55053;SDS011;40954;45.668;18.980;2023-04-15T09:58:02;5.40;;;4.03;;
55053;SDS011;40954;45.668;18.980;2023-04-15T10:00:33;2.70;;;2.50;;
55053;SDS011;40954;45.668;18.980;2023-04-15T10:02:59;1.80;;;1.65;;
55053;SDS011;40954;45.668;18.980;2023-04-15T10:05:26;2.10;;;2.00;;
55053;SDS011;40954;45.668;18.980;2023-04-15T10:07:52;2.08;;;1.80;;
55053;SDS011;40954;45.668;18.980;2023-04-15T10:10:18;2.50;;;1.73;;
55053;SDS011;40954;45.668;18.980;2023-04-15T10:12:44;6.30;;;5.10;;
55053;SDS011;40954;45.668;18.980;2023-04-15T10:15:13;2.17;;;1.70;;
55053;SDS011;40954;45.668;18.980;2023-04-15T10:17:40;1.05;;;1.00;;
55053;SDS011;40954;45.668;18.980;2023-04-15T10:20:08;1.70;;;1.52;;
55053;SDS011;40954;45.668;18.980;2023-04-15T10:22:36;1.02;;;1.00;;
55053;SDS011;40954;45.668;18.980;2023-04-15T10:25:03;1.42;;;1.20;;
55053;SDS011;40954;45.668;18.980;2023-04-15T10:27:31;2.22;;;2.00;;
55053;SDS011;40954;45.668;18.980;2023-04-15T10:29:59;2.90;;;2.65;;
55053;SDS011;40954;45.668;18.980;2023-04-15T10:32:27;3.17;;;2.88;;
55053;SDS011;40954;45.668;18.980;2023-04-15T10:34:54;1.75;;;1.65;;
55053;SDS011;40954;45.668;18.980;2023-04-15T10:37:21;1.95;;;1.80;;
55053;SDS011;40954;45.668;18.980;2023-04-15T10:39:48;1.33;;;1.23;;
55053;SDS011;40954;45.668;18.980;2023-04-15T10:42:15;2.83;;;1.08;;
55053;SDS011;40954;45.668;18.980;2023-04-15T10:44:48;1.63;;;1.00;;
55053;SDS011;40954;45.668;18.980;2023-04-15T10:47:16;3.63;;;1.40;;
55053;SDS011;40954;45.668;18.980;2023-04-15T10:49:44;1.70;;;1.60;;
55053;SDS011;40954;45.668;18.980;2023-04-15T10:52:10;0.85;;;0.85;;
55053;SDS011;40954;45.668;18.980;2023-04-15T10:54:36;8.77;;;3.88;;
55053;SDS011;40954;45.668;18.980;2023-04-15T10:59:36;3.70;;;1.95;;
55053;SDS011;40954;45.668;18.980;2023-04-15T11:02:04;2.55;;;1.35;;
55053;SDS011;40954;45.668;18.980;2023-04-15T11:07:15;4.43;;;4.03;;
55053;SDS011;40954;45.668;18.980;2023-04-15T11:09:57;1.70;;;1.50;;
55053;SDS011;40954;45.668;18.980;2023-04-15T11:12:32;1.73;;;1.63;;
55053;SDS011;40954;45.668;18.980;2023-04-15T11:14:59;1.40;;;1.00;;
55053;SDS011;40954;45.668;18.980;2023-04-15T11:17:28;0.93;;;0.75;;
55053;SDS011;40954;45.668;18.980;2023-04-15T11:19:55;2.28;;;2.08;;
55053;SDS011;40954;45.668;18.980;2023-04-15T11:22:21;1.20;;;1.10;;
55053;SDS011;40954;45.668;18.980;2023-04-15T11:24:47;1.48;;;1.08;;
55053;SDS011;40954;45.668;18.980;2023-04-15T11:27:23;1.38;;;1.00;;
55053;SDS011;40954;45.668;18.980;2023-04-15T11:29:49;1.48;;;1.38;;
55053;SDS011;40954;45.668;18.980;2023-04-15T11:32:16;1.50;;;1.40;;
55053;SDS011;40954;45.668;18.980;2023-04-15T11:34:44;1.95;;;1.45;;
55053;SDS011;40954;45.668;18.980;2023-04-15T11:37:11;2.50;;;1.38;;
55053;SDS011;40954;45.668;18.980;2023-04-15T11:39:37;1.80;;;1.70;;
55053;SDS011;40954;45.668;18.980;2023-04-15T11:42:11;2.03;;;1.83;;
55053;SDS011;40954;45.668;18.980;2023-04-15T11:44:41;2.33;;;1.70;;
55053;SDS011;40954;45.668;18.980;2023-04-15T11:47:22;3.03;;;2.72;;
55053;SDS011;40954;45.668;18.980;2023-04-15T11:52:14;1.60;;;1.50;;
55053;SDS011;40954;45.668;18.980;2023-04-15T11:54:40;1.15;;;1.05;;
55053;SDS011;40954;45.668;18.980;2023-04-15T11:57:06;1.30;;;1.20;;
55053;SDS011;40954;45.668;18.980;2023-04-15T11:59:42;1.95;;;1.77;;
55053;SDS011;40954;45.668;18.980;2023-04-15T12:02:11;2.42;;;1.67;;
55053;SDS011;40954;45.668;18.980;2023-04-15T12:04:38;4.95;;;1.88;;
55053;SDS011;40954;45.668;18.980;2023-04-15T12:07:04;3.60;;;2.95;;
55053;SDS011;40954;45.668;18.980;2023-04-15T12:09:31;2.78;;;2.55;;
55053;SDS011;40954;45.668;18.980;2023-04-15T12:12:02;2.85;;;1.60;;
55053;SDS011;40954;45.668;18.980;2023-04-15T12:14:29;4.60;;;3.72;;
55053;SDS011;40954;45.668;18.980;2023-04-15T12:17:05;1.00;;;1.00;;
55053;SDS011;40954;45.668;18.980;2023-04-15T12:19:35;2.25;;;1.98;;
55053;SDS011;40954;45.668;18.980;2023-04-15T12:22:06;1.27;;;1.17;;
55053;SDS011;40954;45.668;18.980;2023-04-15T12:24:34;1.42;;;1.33;;
55053;SDS011;40954;45.668;18.980;2023-04-15T12:27:02;1.98;;;1.30;;
55053;SDS011;40954;45.668;18.980;2023-04-15T12:29:28;2.22;;;2.00;;
55053;SDS011;40954;45.668;18.980;2023-04-15T12:31:55;6.20;;;4.95;;
55053;SDS011;40954;45.668;18.980;2023-04-15T12:34:26;1.55;;;1.40;;
55053;SDS011;40954;45.668;18.980;2023-04-15T12:36:52;3.08;;;1.73;;
55053;SDS011;40954;45.668;18.980;2023-04-15T12:39:21;7.38;;;5.35;;
55053;SDS011;40954;45.668;18.980;2023-04-15T12:41:47;3.10;;;2.80;;
55053;SDS011;40954;45.668;18.980;2023-04-15T12:44:13;2.92;;;1.35;;
55053;SDS011;40954;45.668;18.980;2023-04-15T12:46:39;3.22;;;2.30;;
55053;SDS011;40954;45.668;18.980;2023-04-15T12:49:05;4.35;;;2.50;;
55053;SDS011;40954;45.668;18.980;2023-04-15T12:51:32;1.70;;;1.60;;
55053;SDS011;40954;45.668;18.980;2023-04-15T12:53:58;0.90;;;0.90;;
55053;SDS011;40954;45.668;18.980;2023-04-15T12:56:24;0.80;;;0.70;;
55053;SDS011;40954;45.668;18.980;2023-04-15T12:58:50;0.93;;;0.93;;
55053;SDS011;40954;45.668;18.980;2023-04-15T13:01:16;3.17;;;1.40;;
55053;SDS011;40954;45.668;18.980;2023-04-15T13:03:43;2.58;;;1.70;;
55053;SDS011;40954;45.668;18.980;2023-04-15T13:06:09;5.05;;;4.50;;
55053;SDS011;40954;45.668;18.980;2023-04-15T13:08:35;4.05;;;1.50;;
55053;SDS011;40954;45.668;18.980;2023-04-15T13:11:02;2.95;;;1.73;;
55053;SDS011;40954;45.668;18.980;2023-04-15T13:13:28;1.33;;;1.08;;
55053;SDS011;40954;45.668;18.980;2023-04-15T13:15:56;1.92;;;1.83;;
55053;SDS011;40954;45.668;18.980;2023-04-15T13:18:22;1.50;;;1.40;;
55053;SDS011;40954;45.668;18.980;2023-04-15T13:20:48;1.38;;;1.00;;
55053;SDS011;40954;45.668;18.980;2023-04-15T13:23:14;2.17;;;1.10;;
55053;SDS011;40954;45.668;18.980;2023-04-15T13:25:41;4.43;;;1.70;;
55053;SDS011;40954;45.668;18.980;2023-04-15T13:28:07;1.45;;;1.20;;
55053;SDS011;40954;45.668;18.980;2023-04-15T13:30:36;0.60;;;0.60;;
55053;SDS011;40954;45.668;18.980;2023-04-15T13:33:02;2.88;;;1.77;;
55053;SDS011;40954;45.668;18.980;2023-04-15T13:35:28;0.85;;;0.85;;
55053;SDS011;40954;45.668;18.980;2023-04-15T13:37:54;1.08;;;0.95;;
55053;SDS011;40954;45.668;18.980;2023-04-15T13:40:20;1.10;;;1.10;;
55053;SDS011;40954;45.668;18.980;2023-04-15T13:42:47;1.63;;;1.45;;
55053;SDS011;40954;45.668;18.980;2023-04-15T13:45:13;5.25;;;2.10;;
55053;SDS011;40954;45.668;18.980;2023-04-15T13:47:39;2.30;;;1.42;;
55053;SDS011;40954;45.668;18.980;2023-04-15T13:50:05;2.78;;;1.98;;
55053;SDS011;40954;45.668;18.980;2023-04-15T13:52:31;2.00;;;1.80;;
55053;SDS011;40954;45.668;18.980;2023-04-15T13:54:57;2.67;;;1.40;;
55053;SDS011;40954;45.668;18.980;2023-04-15T13:57:24;2.15;;;1.85;;
55053;SDS011;40954;45.668;18.980;2023-04-15T13:59:50;1.13;;;1.02;;
55053;SDS011;40954;45.668;18.980;2023-04-15T14:02:16;2.13;;;1.27;;
55053;SDS011;40954;45.668;18.980;2023-04-15T14:04:42;1.60;;;1.50;;
55053;SDS011;40954;45.668;18.980;2023-04-15T14:07:08;1.02;;;1.00;;
55053;SDS011;40954;45.668;18.980;2023-04-15T14:09:34;4.70;;;4.07;;
55053;SDS011;40954;45.668;18.980;2023-04-15T14:12:00;3.80;;;3.30;;
55053;SDS011;40954;45.668;18.980;2023-04-15T14:14:26;2.22;;;2.03;;
55053;SDS011;40954;45.668;18.980;2023-04-15T14:16:53;1.38;;;1.30;;
55053;SDS011;40954;45.668;18.980;2023-04-15T14:19:20;1.98;;;1.10;;
55053;SDS011;40954;45.668;18.980;2023-04-15T14:21:46;2.05;;;1.30;;
55053;SDS011;40954;45.668;18.980;2023-04-15T14:24:12;1.40;;;1.30;;
55053;SDS011;40954;45.668;18.980;2023-04-15T14:26:38;0.90;;;0.90;;
55053;SDS011;40954;45.668;18.980;2023-04-15T14:29:04;1.52;;;1.42;;
55053;SDS011;40954;45.668;18.980;2023-04-15T14:31:30;2.78;;;1.30;;
55053;SDS011;40954;45.668;18.980;2023-04-15T14:33:56;1.50;;;1.35;;
55053;SDS011;40954;45.668;18.980;2023-04-15T14:36:22;1.42;;;1.20;;
55053;SDS011;40954;45.668;18.980;2023-04-15T14:38:48;2.10;;;1.90;;